createdAt,value
2022-08-25T00:00:10.089Z,3.70
2022-08-25T00:01:10.088Z,6.10
2022-08-25T00:02:10.180Z,4.40
2022-08-25T00:03:10.748Z,2.90
2022-08-25T00:04:10.046Z,3.20
2022-08-25T00:05:10.100Z,4.20
2022-08-25T00:06:10.018Z,4.00
2022-08-25T00:07:10.013Z,4.80
2022-08-25T00:08:09.999Z,5.70
2022-08-25T00:09:10.146Z,4.40
2022-08-25T00:10:10.002Z,4.80
2022-08-25T00:11:10.081Z,4.20
2022-08-25T00:12:09.955Z,2.90
2022-08-25T00:13:09.955Z,4.80
2022-08-25T00:14:09.934Z,5.00
2022-08-25T00:15:09.976Z,3.00
2022-08-25T00:16:10.101Z,3.40
2022-08-25T00:17:10.081Z,3.60
2022-08-25T00:18:19.474Z,8.30
2022-08-25T00:19:10.882Z,3.80
2022-08-25T00:20:09.867Z,4.50
2022-08-25T00:21:09.860Z,4.50
2022-08-25T00:22:09.859Z,3.40
2022-08-25T00:23:30.824Z,3.80
2022-08-25T00:24:09.818Z,5.10
2022-08-25T00:25:09.806Z,4.90
2022-08-25T00:26:09.858Z,3.30
2022-08-25T00:27:09.775Z,3.40
2022-08-25T00:28:10.128Z,3.10
2022-08-25T00:29:09.788Z,5.20
2022-08-25T00:30:09.754Z,5.00
2022-08-25T00:31:09.827Z,3.10
2022-08-25T00:32:09.725Z,4.20
2022-08-25T00:33:09.713Z,2.90
2022-08-25T00:34:10.092Z,3.30
2022-08-25T00:35:09.708Z,5.00
2022-08-25T00:36:09.679Z,3.70
2022-08-25T00:37:09.711Z,5.30
2022-08-25T00:38:09.664Z,4.20
2022-08-25T00:39:09.644Z,7.30
2022-08-25T00:40:09.755Z,4.20
2022-08-25T00:41:09.627Z,5.10
2022-08-25T00:42:11.875Z,5.00
2022-08-25T00:43:10.604Z,8.70
2022-08-25T00:44:09.591Z,7.60
2022-08-25T00:45:09.597Z,3.60
2022-08-25T00:46:09.694Z,3.80
2022-08-25T00:47:09.563Z,3.10
2022-08-25T00:48:09.545Z,5.60
2022-08-25T00:49:09.536Z,3.10
2022-08-25T00:50:10.520Z,4.90
2022-08-25T00:51:09.598Z,4.60
2022-08-25T00:52:09.484Z,3.80
2022-08-25T00:53:09.481Z,6.50
2022-08-25T00:54:09.482Z,7.80
2022-08-25T00:55:09.451Z,3.50
2022-08-25T00:56:09.438Z,5.60
2022-08-25T00:57:09.633Z,4.30
2022-08-25T00:58:09.416Z,5.70
2022-08-25T00:59:09.399Z,3.20
2022-08-25T01:00:09.409Z,4.90
2022-08-25T01:01:10.122Z,6.40
2022-08-25T01:02:10.271Z,3.90
2022-08-25T01:03:09.591Z,4.10
2022-08-25T01:04:09.361Z,5.70
2022-08-25T01:05:09.334Z,3.70
2022-08-25T01:06:09.342Z,4.40
2022-08-25T01:07:15.494Z,4.10
2022-08-25T01:08:10.420Z,5.20
2022-08-25T01:09:09.310Z,3.30
2022-08-25T01:10:09.287Z,4.70
2022-08-25T01:11:09.263Z,4.80
2022-08-25T01:12:09.280Z,3.00
2022-08-25T01:13:16.238Z,3.40
2022-08-25T01:14:10.237Z,5.10
2022-08-25T01:15:09.216Z,6.00
2022-08-25T01:16:09.315Z,4.30
2022-08-25T01:17:09.200Z,6.20
2022-08-25T01:18:09.200Z,4.80
2022-08-25T01:19:09.615Z,4.70
2022-08-25T01:20:10.151Z,4.00
2022-08-25T01:21:09.144Z,4.50
2022-08-25T01:22:09.166Z,3.80
2022-08-25T01:23:09.121Z,4.00
2022-08-25T01:24:09.128Z,4.60
2022-08-25T01:25:09.620Z,4.30
2022-08-25T01:26:09.086Z,3.10
2022-08-25T01:27:09.079Z,3.70
2022-08-25T01:28:09.076Z,3.60
2022-08-25T01:29:09.048Z,5.50
2022-08-25T01:30:09.041Z,4.90
2022-08-25T01:31:23.753Z,4.10
2022-08-25T01:32:10.017Z,4.40
2022-08-25T01:33:09.580Z,4.20
2022-08-25T01:34:09.006Z,3.50
2022-08-25T01:35:08.990Z,5.60
2022-08-25T01:36:09.200Z,4.50
2022-08-25T01:37:08.971Z,4.40
2022-08-25T01:38:08.964Z,4.60
2022-08-25T01:39:08.932Z,2.50
2022-08-25T01:40:08.988Z,4.20
2022-08-25T01:41:08.936Z,3.50
2022-08-25T01:42:08.982Z,5.20
2022-08-25T01:43:08.892Z,3.50
2022-08-25T01:44:08.874Z,4.20
2022-08-25T01:45:09.870Z,3.40
2022-08-25T01:46:08.900Z,3.80
2022-08-25T01:47:08.863Z,5.50
2022-08-25T01:48:09.143Z,3.40
2022-08-25T01:49:08.818Z,5.20
2022-08-25T01:50:08.811Z,4.30
2022-08-25T01:51:08.797Z,4.00
2022-08-25T01:52:08.803Z,3.40
2022-08-25T01:53:08.793Z,6.20
2022-08-25T01:54:09.102Z,6.50
2022-08-25T01:55:08.755Z,5.90
2022-08-25T01:56:09.682Z,3.10
2022-08-25T01:57:08.727Z,4.50
2022-08-25T01:58:08.728Z,4.80
2022-08-25T01:59:09.095Z,2.90
2022-08-25T02:00:08.690Z,4.00
2022-08-25T02:01:08.722Z,5.40
2022-08-25T02:02:08.709Z,4.50
2022-08-25T02:03:08.685Z,2.90
2022-08-25T02:04:10.175Z,6.90
2022-08-25T02:05:08.682Z,6.50
2022-08-25T02:06:08.627Z,4.00
2022-08-25T02:07:08.611Z,5.20
2022-08-25T02:08:08.621Z,5.00
2022-08-25T02:09:08.581Z,4.30
2022-08-25T02:10:08.651Z,3.70
2022-08-25T02:11:08.566Z,3.30
2022-08-25T02:12:08.553Z,5.90
2022-08-25T02:13:08.579Z,5.60
2022-08-25T02:14:08.521Z,4.10
2022-08-25T02:15:08.527Z,4.70
2022-08-25T02:16:08.635Z,6.60
2022-08-25T02:17:08.499Z,6.90
2022-08-25T02:18:08.493Z,4.20
2022-08-25T02:19:08.462Z,5.50
2022-08-25T02:20:08.458Z,4.80
2022-08-25T02:21:08.619Z,4.80
2022-08-25T02:22:08.431Z,3.50
2022-08-25T02:23:08.441Z,8.20
2022-08-25T02:24:08.414Z,7.10
2022-08-25T02:25:08.393Z,3.20
2022-08-25T02:26:08.384Z,4.20
2022-08-25T02:27:08.431Z,5.10
2022-08-25T02:28:08.366Z,5.50
2022-08-25T02:29:08.351Z,5.20
2022-08-25T02:30:08.329Z,5.50
2022-08-25T02:31:08.397Z,5.90
2022-08-25T02:32:08.336Z,3.20
2022-08-25T02:33:08.334Z,5.10
2022-08-25T02:34:08.286Z,5.90
2022-08-25T02:35:08.275Z,11.30
2022-08-25T02:36:08.261Z,8.70
2022-08-25T02:37:08.301Z,6.90
2022-08-25T02:38:08.246Z,6.70
2022-08-25T02:39:08.654Z,6.40
2022-08-25T02:40:08.280Z,4.80
2022-08-25T02:41:08.244Z,5.30
2022-08-25T02:42:08.188Z,7.30
2022-08-25T02:43:08.213Z,7.60
2022-08-25T02:44:08.167Z,3.50
2022-08-25T02:45:08.210Z,3.00
2022-08-25T02:46:08.243Z,6.20
2022-08-25T02:47:08.139Z,4.50
2022-08-25T02:48:08.128Z,3.50
2022-08-25T02:49:08.107Z,5.10
2022-08-25T02:50:08.095Z,7.30
2022-08-25T02:51:08.105Z,3.60
2022-08-25T02:52:08.075Z,4.60
2022-08-25T02:53:08.098Z,7.70
2022-08-25T02:54:08.050Z,5.50
2022-08-25T02:55:08.037Z,6.30
2022-08-25T02:56:08.148Z,4.70
2022-08-25T02:57:08.016Z,4.80
2022-08-25T02:58:08.001Z,4.10
2022-08-25T02:59:07.994Z,4.50
2022-08-25T03:00:07.984Z,3.60
2022-08-25T03:01:08.093Z,5.10
2022-08-25T03:02:08.129Z,4.60
2022-08-25T03:03:07.935Z,4.90
2022-08-25T03:04:07.928Z,4.80
2022-08-25T03:05:07.996Z,4.50
2022-08-25T03:06:07.911Z,5.00
2022-08-25T03:07:07.926Z,4.90
2022-08-25T03:08:08.132Z,4.30
2022-08-25T03:09:07.899Z,5.10
2022-08-25T03:10:07.866Z,4.70
2022-08-25T03:11:07.842Z,5.20
2022-08-25T03:12:07.837Z,4.00
2022-08-25T03:13:07.824Z,5.00
2022-08-25T03:14:07.873Z,6.30
2022-08-25T03:15:09.305Z,3.60
2022-08-25T03:16:10.971Z,5.50
2022-08-25T03:17:08.825Z,4.50
2022-08-25T03:18:08.656Z,6.10
2022-08-25T03:19:07.775Z,7.40
2022-08-25T03:20:08.144Z,6.30
2022-08-25T03:21:07.732Z,6.30
2022-08-25T03:22:07.738Z,5.00
2022-08-25T03:23:07.699Z,4.30
2022-08-25T03:24:07.687Z,3.90
2022-08-25T03:25:08.604Z,4.60
2022-08-25T03:26:07.693Z,4.80
2022-08-25T03:27:07.657Z,5.50
2022-08-25T03:28:07.638Z,4.10
2022-08-25T03:29:07.647Z,4.80
2022-08-25T03:30:07.618Z,4.80
2022-08-25T03:31:07.645Z,5.40
2022-08-25T03:32:07.728Z,6.50
2022-08-25T03:33:07.616Z,4.00
2022-08-25T03:34:07.566Z,5.20
2022-08-25T03:35:07.555Z,3.90
2022-08-25T03:36:07.760Z,5.60
2022-08-25T03:37:07.540Z,4.10
2022-08-25T03:38:07.562Z,4.20
2022-08-25T03:39:07.516Z,5.80
2022-08-25T03:40:07.535Z,5.50
2022-08-25T03:41:07.487Z,4.20
2022-08-25T03:42:07.639Z,5.40
2022-08-25T03:43:07.464Z,6.90
2022-08-25T03:44:07.468Z,5.50
2022-08-25T03:45:07.498Z,5.30
2022-08-25T03:46:07.509Z,5.40
2022-08-25T03:47:07.420Z,5.80
2022-08-25T03:48:07.649Z,5.20
2022-08-25T03:49:07.408Z,5.50
2022-08-25T03:50:07.392Z,4.30
2022-08-25T03:51:07.406Z,4.80
2022-08-25T03:52:07.370Z,4.00
2022-08-25T03:53:07.354Z,4.80
2022-08-25T03:54:07.670Z,4.00
2022-08-25T03:55:07.336Z,5.10
2022-08-25T03:56:07.317Z,4.40
2022-08-25T03:57:07.340Z,5.70
2022-08-25T03:58:07.303Z,5.60
2022-08-25T03:59:07.633Z,4.90
2022-08-25T04:00:07.274Z,3.80
2022-08-25T04:01:07.308Z,4.60
2022-08-25T04:02:07.314Z,7.00
2022-08-25T04:03:07.248Z,6.50
2022-08-25T04:04:07.221Z,5.60
2022-08-25T04:05:07.634Z,5.30
2022-08-25T04:06:07.197Z,6.40
2022-08-25T04:07:07.746Z,3.50
2022-08-25T04:08:07.537Z,7.30
2022-08-25T04:09:07.187Z,4.20
2022-08-25T04:10:07.147Z,4.40
2022-08-25T04:11:07.172Z,5.60
2022-08-25T04:12:07.132Z,7.00
2022-08-25T04:13:07.125Z,6.30
2022-08-25T04:14:07.103Z,6.50
2022-08-25T04:15:07.132Z,5.10
2022-08-25T04:16:07.148Z,6.30
2022-08-25T04:17:07.068Z,5.60
2022-08-25T04:18:07.272Z,7.10
2022-08-25T04:19:07.047Z,5.90
2022-08-25T04:20:07.037Z,4.80
2022-08-25T04:21:07.056Z,4.00
2022-08-25T04:22:07.154Z,4.30
2022-08-25T04:23:07.005Z,7.40
2022-08-25T04:24:07.023Z,6.20
2022-08-25T04:25:06.973Z,3.80
2022-08-25T04:26:06.963Z,4.40
2022-08-25T04:27:06.967Z,7.40
2022-08-25T04:28:07.397Z,6.20
2022-08-25T04:29:06.945Z,4.90
2022-08-25T04:30:06.917Z,5.50
2022-08-25T04:31:06.902Z,8.60
2022-08-25T04:32:06.966Z,6.60
2022-08-25T04:33:07.143Z,4.40
2022-08-25T04:34:17.341Z,6.30
2022-08-25T04:35:07.856Z,5.60
2022-08-25T04:36:11.978Z,4.30
2022-08-25T04:37:07.830Z,5.90
2022-08-25T04:38:06.979Z,5.90
2022-08-25T04:39:07.242Z,4.50
2022-08-25T04:40:06.889Z,4.20
2022-08-25T04:41:06.784Z,7.70
2022-08-25T04:42:06.786Z,4.40
2022-08-25T04:43:06.761Z,4.50
2022-08-25T04:44:06.753Z,5.70
2022-08-25T04:45:07.166Z,5.20
2022-08-25T04:46:06.869Z,4.70
2022-08-25T04:47:06.721Z,5.50
2022-08-25T04:48:07.304Z,5.10
2022-08-25T04:49:06.704Z,4.00
2022-08-25T04:50:06.683Z,4.30
2022-08-25T04:51:06.674Z,4.20
2022-08-25T04:52:07.785Z,5.40
2022-08-25T04:53:08.178Z,4.00
2022-08-25T04:54:06.645Z,3.90
2022-08-25T04:55:06.624Z,4.70
2022-08-25T04:56:06.622Z,6.80
2022-08-25T04:57:06.605Z,6.90
2022-08-25T04:58:06.805Z,4.70
2022-08-25T04:59:07.689Z,5.30
2022-08-25T05:00:06.567Z,6.20
2022-08-25T05:01:06.682Z,5.00
2022-08-25T05:02:06.588Z,5.80
2022-08-25T05:03:06.540Z,6.20
2022-08-25T05:04:06.583Z,6.30
2022-08-25T05:05:06.655Z,7.20
2022-08-25T05:06:06.489Z,7.90
2022-08-25T05:07:06.488Z,6.40
2022-08-25T05:08:06.695Z,5.10
2022-08-25T05:09:06.478Z,7.30
2022-08-25T05:10:06.461Z,7.10
2022-08-25T05:11:06.654Z,5.00
2022-08-25T05:12:06.423Z,5.50
2022-08-25T05:13:06.442Z,5.80
2022-08-25T05:14:06.410Z,4.90
2022-08-25T05:15:06.395Z,4.80
2022-08-25T05:16:06.648Z,4.40
2022-08-25T05:17:06.366Z,6.10
2022-08-25T05:18:06.419Z,7.00
2022-08-25T05:19:06.340Z,4.70
2022-08-25T05:20:06.326Z,5.90
2022-08-25T05:21:06.370Z,6.00
2022-08-25T05:22:06.310Z,4.30
2022-08-25T05:23:06.302Z,6.20
2022-08-25T05:24:06.282Z,6.40
2022-08-25T05:25:06.303Z,5.40
2022-08-25T05:26:06.638Z,8.10
2022-08-25T05:27:06.245Z,4.70
2022-08-25T05:28:06.318Z,7.50
2022-08-25T05:29:06.247Z,6.80
2022-08-25T05:30:06.210Z,9.20
2022-08-25T05:31:06.267Z,6.50
2022-08-25T05:32:06.725Z,8.20
2022-08-25T05:33:06.179Z,10.50
2022-08-25T05:34:06.168Z,12.20
2022-08-25T05:35:06.159Z,5.80
2022-08-25T05:36:06.154Z,4.80
2022-08-25T05:37:10.330Z,7.10
2022-08-25T05:38:07.208Z,5.60
2022-08-25T05:39:07.111Z,7.80
2022-08-25T05:40:06.154Z,7.40
2022-08-25T05:41:06.212Z,7.80
2022-08-25T05:42:06.100Z,10.70
2022-08-25T05:43:06.173Z,33.60
2022-08-25T05:44:06.047Z,19.50
2022-08-25T05:45:06.078Z,42.00
2022-08-25T05:46:06.160Z,49.10
2022-08-25T05:47:06.013Z,23.90
2022-08-25T05:48:06.206Z,21.20
2022-08-25T05:49:06.282Z,18.20
2022-08-25T05:50:05.980Z,27.30
2022-08-25T05:51:05.976Z,15.50
2022-08-25T05:52:05.965Z,8.30
2022-08-25T05:53:05.966Z,7.50
2022-08-25T05:54:05.940Z,7.40
2022-08-25T05:55:06.182Z,6.40
2022-08-25T05:56:06.162Z,12.20
2022-08-25T05:57:06.003Z,9.50
2022-08-25T05:58:06.013Z,6.30
2022-08-25T05:59:09.323Z,5.00
2022-08-25T06:00:05.932Z,8.00
2022-08-25T06:01:05.925Z,7.10
2022-08-25T06:02:06.171Z,6.30
2022-08-25T06:03:05.839Z,5.40
2022-08-25T06:04:05.900Z,7.00
2022-08-25T06:05:05.829Z,4.70
2022-08-25T06:06:05.815Z,5.30
2022-08-25T06:07:05.796Z,5.00
2022-08-25T06:08:06.306Z,5.50
2022-08-25T06:09:05.810Z,5.00
2022-08-25T06:10:05.770Z,6.00
2022-08-25T06:11:05.747Z,5.10
2022-08-25T06:12:05.738Z,7.50
2022-08-25T06:13:06.571Z,5.70
2022-08-25T06:14:05.717Z,8.40
2022-08-25T06:15:05.718Z,6.20
2022-08-25T06:16:05.732Z,5.70
2022-08-25T06:17:05.680Z,7.50
2022-08-25T06:18:05.815Z,6.60
2022-08-25T06:19:06.173Z,7.10
2022-08-25T06:20:05.716Z,6.50
2022-08-25T06:21:05.653Z,5.90
2022-08-25T06:22:05.673Z,6.10
2022-08-25T06:23:05.680Z,6.60
2022-08-25T06:24:05.630Z,7.40
2022-08-25T06:25:05.627Z,7.70
2022-08-25T06:26:05.590Z,5.10
2022-08-25T06:27:05.577Z,5.50
2022-08-25T06:28:05.764Z,6.80
2022-08-25T06:29:05.562Z,6.30
2022-08-25T06:30:07.717Z,5.40
2022-08-25T06:31:05.678Z,6.50
2022-08-25T06:32:05.525Z,5.50
2022-08-25T06:33:05.510Z,5.70
2022-08-25T06:34:05.501Z,6.10
2022-08-25T06:35:05.537Z,5.20
2022-08-25T06:36:05.482Z,7.30
2022-08-25T06:37:05.672Z,6.40
2022-08-25T06:38:05.738Z,7.40
2022-08-25T06:39:05.452Z,5.60
2022-08-25T06:40:05.495Z,4.80
2022-08-25T06:41:05.427Z,5.40
2022-08-25T06:42:06.109Z,7.00
2022-08-25T06:43:05.689Z,7.90
2022-08-25T06:44:05.824Z,5.00
2022-08-25T06:45:05.390Z,5.90
2022-08-25T06:46:05.378Z,6.20
2022-08-25T06:47:05.441Z,5.80
2022-08-25T06:48:06.350Z,5.60
2022-08-25T06:49:05.352Z,6.50
2022-08-25T06:50:05.330Z,5.60
2022-08-25T06:51:05.318Z,6.30
2022-08-25T06:52:05.313Z,6.20
2022-08-25T06:53:05.303Z,5.30
2022-08-25T06:54:27.187Z,5.30
2022-08-25T06:55:05.279Z,5.10
2022-08-25T06:56:06.725Z,7.30
2022-08-25T06:57:05.255Z,7.60
2022-08-25T06:58:05.449Z,6.00
2022-08-25T06:59:05.237Z,7.50
2022-08-25T07:00:05.681Z,5.30
2022-08-25T07:01:05.212Z,5.20
2022-08-25T07:02:05.278Z,6.80
2022-08-25T07:03:05.202Z,5.90
2022-08-25T07:04:10.099Z,5.00
2022-08-25T07:05:40.929Z,5.40
2022-08-25T07:06:06.165Z,5.60
2022-08-25T07:07:05.193Z,5.30
2022-08-25T07:08:05.379Z,7.20
2022-08-25T07:09:05.139Z,5.60
2022-08-25T07:10:05.122Z,5.00
2022-08-25T07:11:05.150Z,5.50
2022-08-25T07:12:05.115Z,6.30
2022-08-25T07:13:05.099Z,5.50
2022-08-25T07:14:05.076Z,5.80
2022-08-25T07:15:19.576Z,6.30
2022-08-25T07:16:06.227Z,5.10
2022-08-25T07:17:12.429Z,6.30
2022-08-25T07:18:06.206Z,6.70
2022-08-25T07:19:05.095Z,5.80
2022-08-25T07:22:32.901Z,10.50
2022-08-25T07:23:35.851Z,6.00
2022-08-25T07:24:32.842Z,5.00
2022-08-25T07:25:32.821Z,8.20
2022-08-25T07:26:40.084Z,5.70
2022-08-25T07:27:33.829Z,5.70
2022-08-25T07:28:32.840Z,6.80
2022-08-25T07:29:33.310Z,5.50
2022-08-25T07:30:32.763Z,8.40
2022-08-25T07:31:32.861Z,5.40
2022-08-25T07:32:32.745Z,6.40
2022-08-25T07:33:32.841Z,6.80
2022-08-25T07:34:32.748Z,10.50
2022-08-25T07:35:37.664Z,6.30
2022-08-25T07:36:33.723Z,5.90
2022-08-25T07:37:47.858Z,9.30
2022-08-25T07:38:33.857Z,6.40
2022-08-25T07:39:32.703Z,6.10
2022-08-25T07:40:32.771Z,7.30
2022-08-25T07:41:32.705Z,6.30
2022-08-25T07:42:32.672Z,5.30
2022-08-25T07:43:33.781Z,5.50
2022-08-25T07:44:34.594Z,6.90
2022-08-25T07:45:32.611Z,6.00
2022-08-25T07:46:32.632Z,6.40
2022-08-25T07:47:32.628Z,6.50
2022-08-25T07:48:33.304Z,5.60
2022-08-25T07:49:35.858Z,10.90
2022-08-25T07:50:33.983Z,7.90
2022-08-25T07:51:32.600Z,8.40
2022-08-25T07:52:32.559Z,5.80
2022-08-25T07:53:32.545Z,6.00
2022-08-25T07:54:34.243Z,7.90
2022-08-25T07:55:33.340Z,6.40
2022-08-25T07:56:32.537Z,6.20
2022-08-25T07:57:32.517Z,5.40
2022-08-25T07:58:32.517Z,33.10
2022-08-25T07:59:39.403Z,9.00
2022-08-25T08:00:44.379Z,6.80
2022-08-25T08:01:40.466Z,5.70
2022-08-25T08:02:32.678Z,8.40
2022-08-25T08:03:45.170Z,5.30
2022-08-25T08:04:33.435Z,7.70
2022-08-25T08:05:33.392Z,8.90
2022-08-25T08:06:32.423Z,10.60
2022-08-25T08:07:43.389Z,7.90
2022-08-25T08:08:33.494Z,9.00
2022-08-25T08:09:32.415Z,7.40
2022-08-25T08:10:54.113Z,6.90
2022-08-25T08:11:33.981Z,7.50
2022-08-25T08:12:32.354Z,6.70
2022-08-25T08:13:32.331Z,5.70
2022-08-25T08:14:33.423Z,5.80
2022-08-25T08:15:32.338Z,7.90
2022-08-25T08:16:32.378Z,6.70
2022-08-25T08:17:32.508Z,6.40
2022-08-25T08:18:32.355Z,6.40
2022-08-25T08:19:32.335Z,5.20
2022-08-25T08:20:36.129Z,5.10
2022-08-25T08:21:33.317Z,6.30
2022-08-25T08:22:32.407Z,7.30
2022-08-25T08:23:32.381Z,7.10
2022-08-25T08:24:44.784Z,6.40
2022-08-25T08:25:33.249Z,7.30
2022-08-25T08:26:55.265Z,6.80
2022-08-25T08:27:33.193Z,6.70
2022-08-25T08:28:32.206Z,7.50
2022-08-25T08:29:32.200Z,7.30
2022-08-25T08:30:32.335Z,6.00
2022-08-25T08:31:32.388Z,7.40
2022-08-25T08:32:46.419Z,9.90
2022-08-25T08:33:33.352Z,5.20
2022-08-25T08:34:33.153Z,4.80
2022-08-25T08:35:32.130Z,8.30
2022-08-25T08:36:32.103Z,11.70
2022-08-25T08:37:32.135Z,5.10
2022-08-25T08:38:32.140Z,7.60
2022-08-25T08:39:32.774Z,6.10
2022-08-25T08:40:32.102Z,5.80
2022-08-25T08:41:40.225Z,5.90
2022-08-25T08:42:33.118Z,6.50
2022-08-25T08:43:33.393Z,6.00
2022-08-25T08:44:32.025Z,5.90
2022-08-25T08:45:35.357Z,5.50
2022-08-25T08:46:33.310Z,6.30
2022-08-25T08:47:33.839Z,6.90
2022-08-25T08:48:32.602Z,8.20
2022-08-25T08:49:31.987Z,5.40
2022-08-25T08:50:33.044Z,6.70
2022-08-25T08:51:32.958Z,7.20
2022-08-25T08:52:31.947Z,6.90
2022-08-25T08:53:33.931Z,5.60
2022-08-25T08:54:34.164Z,5.00
2022-08-25T08:55:31.978Z,6.70
2022-08-25T08:56:31.987Z,6.40
2022-08-25T08:57:32.548Z,6.00
2022-08-25T08:58:32.037Z,5.40
2022-08-25T08:59:31.895Z,8.40
2022-08-25T09:00:31.892Z,7.20
2022-08-25T09:01:31.932Z,5.40
2022-08-25T09:02:39.284Z,5.20
2022-08-25T09:03:32.940Z,5.20
2022-08-25T09:04:31.828Z,5.70
2022-08-25T09:05:33.639Z,8.80
2022-08-25T09:06:32.865Z,5.80
2022-08-25T09:07:31.886Z,5.90
2022-08-25T09:08:31.795Z,5.30
2022-08-25T09:09:33.378Z,5.30
2022-08-25T09:10:31.811Z,7.70
2022-08-25T09:11:31.780Z,7.90
2022-08-25T09:12:31.748Z,6.10
2022-08-25T09:13:52.881Z,6.50
2022-08-25T09:14:31.730Z,6.30
2022-08-25T09:15:31.773Z,5.20
2022-08-25T09:16:34.381Z,5.60
2022-08-25T09:17:31.722Z,6.50
2022-08-25T09:18:31.856Z,5.10
2022-08-25T09:19:31.978Z,5.30
2022-08-25T09:20:31.728Z,6.90
2022-08-25T09:21:31.666Z,6.20
2022-08-25T09:22:35.362Z,5.90
2022-08-25T09:23:31.675Z,5.90
2022-08-25T09:24:32.367Z,6.50
2022-08-25T09:25:52.430Z,6.40
2022-08-25T09:26:32.708Z,8.30
2022-08-25T09:27:31.611Z,6.10
2022-08-25T09:28:31.605Z,8.30
2022-08-25T09:29:31.900Z,6.20
2022-08-25T09:30:32.345Z,5.40
2022-08-25T09:31:31.691Z,6.60
2022-08-25T09:32:32.456Z,6.90
2022-08-25T09:33:34.271Z,5.50
2022-08-25T09:34:31.871Z,6.80
2022-08-25T09:35:31.543Z,7.40
2022-08-25T09:36:36.757Z,5.50
2022-08-25T09:37:32.526Z,6.10
2022-08-25T09:38:31.564Z,5.70
2022-08-25T09:39:31.528Z,5.20
2022-08-25T09:40:31.922Z,9.50
2022-08-25T09:41:31.500Z,5.70
2022-08-25T09:42:31.519Z,6.60
2022-08-25T09:43:31.468Z,5.70
2022-08-25T09:44:31.455Z,4.90
2022-08-25T09:45:31.887Z,6.20
2022-08-25T09:46:31.583Z,6.30
2022-08-25T09:47:31.494Z,5.40
2022-08-25T09:48:31.414Z,5.60
2022-08-25T09:49:31.408Z,6.10
2022-08-25T09:50:32.368Z,6.20
2022-08-25T09:51:42.529Z,5.70
2022-08-25T09:52:32.413Z,5.30
2022-08-25T09:53:33.903Z,4.90
2022-08-25T09:54:44.024Z,5.70
2022-08-25T09:55:33.378Z,5.60
2022-08-25T09:56:34.368Z,5.30
2022-08-25T09:57:31.340Z,6.40
2022-08-25T09:58:31.356Z,5.20
2022-08-25T09:59:34.923Z,5.30
2022-08-25T10:00:31.355Z,5.10
2022-08-25T10:01:31.403Z,6.10
2022-08-25T10:02:31.306Z,4.70
2022-08-25T10:03:31.271Z,5.80
2022-08-25T10:04:32.266Z,4.50
2022-08-25T10:05:31.324Z,5.50
2022-08-25T10:06:31.279Z,4.80
2022-08-25T10:07:31.241Z,4.80
2022-08-25T10:08:31.253Z,5.10
2022-08-25T10:09:31.238Z,5.60
2022-08-25T10:10:32.523Z,7.10
2022-08-25T10:11:31.899Z,7.50
2022-08-25T10:12:31.194Z,7.60
2022-08-25T10:13:31.189Z,8.00
2022-08-25T10:14:31.214Z,5.10
2022-08-25T10:15:31.272Z,5.00
2022-08-25T10:16:35.621Z,4.80
2022-08-25T10:17:31.844Z,4.80
2022-08-25T10:18:31.168Z,5.70
2022-08-25T10:19:31.156Z,6.10
2022-08-25T10:20:35.077Z,4.80
2022-08-25T10:21:31.394Z,4.30
2022-08-25T10:22:31.168Z,6.30
2022-08-25T10:23:31.134Z,4.70
2022-08-25T10:24:31.092Z,5.70
2022-08-25T10:25:31.084Z,4.60
2022-08-25T10:26:34.309Z,4.50
2022-08-25T10:27:31.375Z,5.00
2022-08-25T10:28:31.112Z,4.50
2022-08-25T10:29:32.625Z,6.40
2022-08-25T10:30:31.029Z,4.20
2022-08-25T10:31:32.984Z,4.70
2022-08-25T10:32:31.896Z,5.30
2022-08-25T10:33:31.012Z,5.70
2022-08-25T10:34:31.022Z,5.50
2022-08-25T10:35:31.005Z,5.40
2022-08-25T10:36:31.866Z,4.50
2022-08-25T10:37:32.616Z,5.20
2022-08-25T10:38:35.249Z,4.90
2022-08-25T10:39:34.649Z,5.70
2022-08-25T10:40:31.013Z,4.80
2022-08-25T10:41:30.950Z,6.50
2022-08-25T10:42:30.923Z,8.10
2022-08-25T10:43:31.382Z,6.80
2022-08-25T10:44:30.907Z,11.90
2022-08-25T10:45:30.894Z,7.40
2022-08-25T10:46:31.369Z,4.20
2022-08-25T10:47:30.919Z,5.90
2022-08-25T10:48:31.628Z,6.90
2022-08-25T10:49:30.963Z,5.90
2022-08-25T10:50:31.168Z,5.40
2022-08-25T10:51:30.899Z,5.70
2022-08-25T10:52:30.972Z,6.00
2022-08-25T10:53:30.847Z,6.30
2022-08-25T10:54:30.835Z,7.30
2022-08-25T10:55:30.812Z,4.60
2022-08-25T10:56:30.825Z,4.50
2022-08-25T10:57:30.953Z,6.20
2022-08-25T10:58:30.996Z,5.90
2022-08-25T10:59:31.567Z,6.60
2022-08-25T11:00:31.818Z,11.30
2022-08-25T11:01:36.650Z,6.30
2022-08-25T11:02:31.818Z,5.30
2022-08-25T11:03:35.293Z,5.00
2022-08-25T11:04:30.771Z,8.60
2022-08-25T11:05:30.756Z,12.70
2022-08-25T11:06:30.714Z,5.10
2022-08-25T11:07:30.714Z,4.80
2022-08-25T11:08:30.690Z,5.60
2022-08-25T11:09:30.679Z,5.60
2022-08-25T11:10:30.708Z,5.60
2022-08-25T11:11:30.707Z,4.60
2022-08-25T11:12:30.692Z,6.40
2022-08-25T11:13:30.656Z,4.90
2022-08-25T11:14:34.443Z,5.70
2022-08-25T11:15:31.187Z,5.50
2022-08-25T11:16:31.402Z,6.90
2022-08-25T11:17:30.627Z,6.10
2022-08-25T11:18:30.598Z,6.10
2022-08-25T11:19:30.620Z,4.30
2022-08-25T11:20:30.902Z,6.20
2022-08-25T11:21:30.594Z,4.10
2022-08-25T11:22:30.565Z,4.80
2022-08-25T11:23:30.597Z,7.70
2022-08-25T11:24:30.567Z,4.40
2022-08-25T11:25:30.560Z,6.40
2022-08-25T11:26:33.822Z,5.80
2022-08-25T11:27:31.522Z,5.50
2022-08-25T11:28:30.518Z,4.30
2022-08-25T11:29:30.549Z,4.20
2022-08-25T11:30:30.572Z,4.50
2022-08-25T11:31:32.511Z,5.70
2022-08-25T11:32:30.507Z,6.20
2022-08-25T11:33:30.492Z,6.20
2022-08-25T11:34:30.490Z,5.40
2022-08-25T11:35:30.563Z,5.00
2022-08-25T11:36:31.442Z,5.60
2022-08-25T11:37:30.444Z,5.50
2022-08-25T11:38:31.365Z,4.80
2022-08-25T11:39:33.050Z,5.80
2022-08-25T11:40:30.494Z,9.40
2022-08-25T11:41:30.937Z,6.70
2022-08-25T11:42:30.385Z,10.20
2022-08-25T11:43:35.654Z,7.60
2022-08-25T11:44:31.356Z,6.60
2022-08-25T11:45:30.367Z,5.70
2022-08-25T11:46:30.407Z,7.70
2022-08-25T11:47:30.322Z,5.60
2022-08-25T11:48:30.320Z,6.90
2022-08-25T11:49:30.331Z,4.20
2022-08-25T11:50:30.690Z,7.40
2022-08-25T11:51:30.811Z,6.00
2022-08-25T11:52:30.849Z,6.90
2022-08-25T11:53:30.474Z,4.20
2022-08-25T11:54:30.268Z,23.10
2022-08-25T11:55:30.247Z,6.10
2022-08-25T11:56:30.231Z,6.50
2022-08-25T11:57:30.218Z,6.70
2022-08-25T11:58:30.705Z,7.20
2022-08-25T11:59:30.235Z,6.00
2022-08-25T12:00:30.187Z,4.00
2022-08-25T12:01:30.174Z,4.20
2022-08-25T12:02:30.195Z,3.80
2022-08-25T12:03:30.413Z,3.90
2022-08-25T12:04:30.329Z,4.70
2022-08-25T12:05:30.216Z,4.60
2022-08-25T12:06:30.129Z,5.10
2022-08-25T12:07:30.169Z,4.40
2022-08-25T12:08:30.151Z,4.50
2022-08-25T12:09:30.484Z,4.30
2022-08-25T12:10:30.169Z,5.60
2022-08-25T12:11:30.096Z,11.80
2022-08-25T12:12:30.118Z,4.40
2022-08-25T12:13:30.094Z,5.40
2022-08-25T12:14:30.405Z,3.80
2022-08-25T12:15:30.888Z,5.10
2022-08-25T12:16:30.109Z,3.80
2022-08-25T12:17:30.010Z,5.80
2022-08-25T12:18:30.015Z,5.40
2022-08-25T12:19:30.010Z,4.20
2022-08-25T12:20:30.403Z,4.10
2022-08-25T12:21:29.961Z,6.20
2022-08-25T12:22:29.961Z,4.20
2022-08-25T12:23:29.944Z,3.60
2022-08-25T12:24:29.935Z,4.90
2022-08-25T12:25:30.410Z,4.30
2022-08-25T12:26:29.974Z,5.10
2022-08-25T12:27:33.531Z,4.60
2022-08-25T12:28:29.877Z,5.60
2022-08-25T12:29:30.868Z,4.90
2022-08-25T12:30:29.950Z,4.20
2022-08-25T12:31:29.882Z,6.60
2022-08-25T12:32:29.841Z,5.50
2022-08-25T12:33:29.824Z,5.60
2022-08-25T12:34:29.860Z,3.80
2022-08-25T12:35:29.940Z,4.40
2022-08-25T12:36:29.810Z,8.00
2022-08-25T12:37:29.825Z,4.90
2022-08-25T12:38:29.789Z,5.00
2022-08-25T12:39:29.763Z,6.00
2022-08-25T12:40:29.808Z,5.50
2022-08-25T12:41:30.950Z,4.70
2022-08-25T12:42:29.739Z,3.70
2022-08-25T12:43:37.158Z,5.20
2022-08-25T12:44:30.711Z,8.00
2022-08-25T12:45:29.696Z,6.50
2022-08-25T12:46:30.002Z,13.90
2022-08-25T12:47:29.675Z,8.20
2022-08-25T12:48:29.941Z,5.80
2022-08-25T12:49:29.673Z,5.80
2022-08-25T12:50:31.386Z,21.00
2022-08-25T12:51:29.784Z,19.40
2022-08-25T12:52:29.974Z,10.30
2022-08-25T12:53:29.667Z,8.50
2022-08-25T12:54:29.715Z,6.20
2022-08-25T12:55:29.587Z,4.10
2022-08-25T12:56:29.577Z,4.10
2022-08-25T12:57:30.093Z,5.40
2022-08-25T12:58:43.760Z,6.00
2022-08-25T12:59:30.545Z,3.80
2022-08-25T13:00:29.546Z,3.60
2022-08-25T13:01:36.172Z,4.80
2022-08-25T13:02:30.784Z,6.00
2022-08-25T13:03:29.634Z,9.10
2022-08-25T13:04:29.496Z,8.20
2022-08-25T13:05:29.485Z,8.00
2022-08-25T13:06:29.482Z,4.90
2022-08-25T13:07:29.521Z,5.50
2022-08-25T13:08:33.600Z,3.70
2022-08-25T13:09:29.450Z,3.20
2022-08-25T13:10:29.428Z,5.40
2022-08-25T13:11:29.446Z,3.80
2022-08-25T13:12:29.402Z,5.50
2022-08-25T13:13:29.424Z,4.90
2022-08-25T13:15:29.368Z,4.20
2022-08-25T13:16:30.129Z,3.30
2022-08-25T13:17:29.354Z,6.50
2022-08-25T13:18:29.336Z,6.70
2022-08-25T13:19:34.822Z,3.70
2022-08-25T13:20:30.322Z,9.50